createdAt,value
2023-04-28T00:00:13.572Z,7.16
2023-04-28T00:02:59.178Z,7.13
2023-04-28T00:05:44.934Z,7.16
2023-04-28T00:08:30.462Z,7.14
2023-04-28T00:11:15.852Z,6.93
2023-04-28T00:14:01.494Z,6.69
2023-04-28T00:16:46.917Z,6.58
2023-04-28T00:19:32.589Z,6.65
2023-04-28T00:22:18.695Z,6.68
2023-04-28T00:25:05.183Z,6.75
2023-04-28T00:27:51.173Z,6.75
2023-04-28T00:30:36.834Z,6.78
2023-04-28T00:33:22.425Z,6.73
2023-04-28T00:36:08.620Z,6.72
2023-04-28T00:38:53.957Z,6.75
2023-04-28T00:41:39.734Z,6.73
2023-04-28T00:44:25.163Z,6.71
2023-04-28T00:47:11.708Z,6.65
2023-04-28T00:49:57.776Z,6.46
2023-04-28T00:52:43.361Z,6.12
2023-04-28T00:55:31.962Z,5.90
2023-04-28T00:58:17.638Z,5.77
2023-04-28T01:01:07.920Z,5.73
2023-04-28T01:03:53.825Z,5.62
2023-04-28T01:06:41.593Z,5.50
2023-04-28T01:09:27.074Z,5.51
2023-04-28T01:12:12.586Z,5.48
2023-04-28T01:14:58.608Z,5.54
2023-04-28T01:17:45.780Z,5.52
2023-04-28T01:20:31.352Z,5.50
2023-04-28T01:23:17.700Z,5.45
2023-04-28T01:26:03.224Z,5.38
2023-04-28T01:28:48.688Z,5.22
2023-04-28T01:31:34.036Z,5.13
2023-04-28T01:34:19.816Z,5.12
2023-04-28T01:37:05.229Z,4.99
2023-04-28T01:39:50.597Z,4.94
2023-04-28T01:42:36.269Z,4.80
2023-04-28T01:45:21.647Z,4.64
2023-04-28T01:48:07.131Z,4.62
2023-04-28T01:50:52.864Z,4.59
2023-04-28T01:53:38.276Z,4.52
2023-04-28T01:56:24.070Z,4.54
2023-04-28T01:59:09.379Z,4.52
2023-04-28T02:01:54.937Z,4.51
2023-04-28T02:04:40.818Z,4.54
2023-04-28T02:07:26.333Z,4.58
2023-04-28T02:10:12.000Z,4.67
2023-04-28T02:12:57.394Z,4.71
2023-04-28T02:15:43.312Z,4.64
2023-04-28T02:18:28.738Z,4.69
2023-04-28T02:21:14.123Z,4.65
2023-04-28T02:23:59.633Z,4.60
2023-04-28T02:26:45.015Z,4.54
2023-04-28T02:29:30.822Z,4.56
2023-04-28T02:32:16.263Z,4.61
2023-04-28T02:35:02.099Z,4.70
2023-04-28T02:37:47.485Z,4.91
2023-04-28T02:40:33.002Z,4.99
2023-04-28T02:43:18.623Z,5.08
2023-04-28T02:46:04.585Z,5.13
2023-04-28T02:48:49.932Z,5.18
2023-04-28T02:51:35.511Z,5.11
2023-04-28T02:54:29.411Z,5.06
2023-04-28T02:57:15.061Z,5.04
2023-04-28T03:00:00.630Z,5.12
2023-04-28T03:02:48.738Z,5.07
2023-04-28T03:05:34.311Z,5.08
2023-04-28T03:08:20.903Z,5.14
2023-04-28T03:11:06.344Z,5.13
2023-04-28T03:13:51.722Z,5.14
2023-04-28T03:16:38.289Z,5.22
2023-04-28T03:19:24.245Z,5.21
2023-04-28T03:22:09.966Z,5.24
2023-04-28T03:24:55.710Z,5.24
2023-04-28T03:27:41.247Z,5.27
2023-04-28T03:30:26.985Z,5.23
2023-04-28T03:33:12.549Z,5.25
2023-04-28T03:35:57.813Z,5.30
2023-04-28T03:38:43.866Z,5.30
2023-04-28T03:41:29.349Z,5.27
2023-04-28T03:44:15.162Z,5.26
2023-04-28T03:47:01.406Z,5.12
2023-04-28T03:49:46.729Z,5.20
2023-04-28T03:52:32.359Z,5.18
2023-04-28T03:55:17.922Z,5.16
2023-04-28T03:58:03.600Z,5.12
2023-04-28T04:00:49.203Z,5.13
2023-04-28T04:03:34.834Z,5.13
2023-04-28T04:06:21.973Z,5.18
2023-04-28T04:09:07.178Z,5.25
2023-04-28T04:11:52.906Z,5.22
2023-04-28T04:14:38.435Z,5.28
2023-04-28T04:17:24.053Z,5.30
2023-04-28T04:20:10.023Z,5.35
2023-04-28T04:22:55.492Z,5.35
2023-04-28T04:25:41.114Z,5.44
2023-04-28T04:28:26.630Z,5.43
2023-04-28T04:31:12.355Z,5.49
2023-04-28T04:33:58.009Z,5.56
2023-04-28T04:36:44.136Z,5.64
2023-04-28T04:39:29.707Z,5.68
2023-04-28T04:42:25.013Z,5.76
2023-04-28T04:45:12.164Z,5.77
2023-04-28T04:47:58.054Z,5.91
2023-04-28T04:50:44.401Z,5.96
2023-04-28T04:53:29.865Z,6.06
2023-04-28T04:56:15.415Z,6.10
2023-04-28T04:59:00.876Z,6.18
2023-04-28T05:01:47.242Z,6.28
2023-04-28T05:04:32.852Z,6.37
2023-04-28T05:07:18.545Z,6.52
2023-04-28T05:10:04.548Z,6.63
2023-04-28T05:12:50.523Z,6.81
2023-04-28T05:15:36.098Z,7.05
2023-04-28T05:18:21.724Z,7.18
2023-04-28T05:21:07.128Z,7.40
2023-04-28T05:23:53.724Z,7.56
2023-04-28T05:26:39.160Z,8.03
2023-04-28T05:29:24.976Z,8.59
2023-04-28T05:32:10.595Z,9.47
2023-04-28T05:34:56.492Z,9.70
2023-04-28T05:37:43.559Z,9.90
2023-04-28T05:40:29.133Z,10.28
2023-04-28T05:43:14.736Z,10.33
2023-04-28T05:46:00.764Z,10.73
2023-04-28T05:48:46.949Z,10.92
2023-04-28T05:51:33.591Z,11.22
2023-04-28T05:54:19.176Z,11.37
2023-04-28T05:57:05.111Z,11.71
2023-04-28T05:59:50.658Z,11.92
2023-04-28T06:02:36.192Z,12.22
2023-04-28T06:05:22.902Z,12.56
2023-04-28T06:08:08.877Z,13.04
2023-04-28T06:10:54.248Z,13.09
2023-04-28T06:13:39.717Z,13.13
2023-04-28T06:16:25.653Z,12.97
2023-04-28T06:19:11.749Z,13.13
2023-04-28T06:21:57.162Z,13.33
2023-04-28T06:24:44.003Z,13.66
2023-04-28T06:27:32.676Z,14.03
2023-04-28T06:30:20.341Z,14.45
2023-04-28T06:33:05.645Z,15.55
2023-04-28T06:35:51.866Z,16.03
2023-04-28T06:38:37.487Z,16.02
2023-04-28T06:41:23.175Z,16.06
2023-04-28T06:44:08.737Z,16.33
2023-04-28T06:46:54.292Z,16.30
2023-04-28T06:49:39.844Z,16.40
2023-04-28T06:52:36.815Z,16.22
2023-04-28T06:55:24.850Z,16.53
2023-04-28T06:58:11.288Z,16.52
2023-04-28T07:00:56.585Z,16.70
2023-04-28T07:03:42.176Z,16.56
2023-04-28T07:06:28.571Z,16.76
2023-04-28T07:09:15.861Z,17.39
2023-04-28T07:12:01.739Z,17.44
2023-04-28T07:14:47.372Z,17.54
2023-04-28T07:17:32.784Z,17.58
2023-04-28T07:20:18.348Z,17.94
2023-04-28T07:23:03.742Z,17.89
2023-04-28T07:25:49.283Z,18.43
2023-04-28T07:28:34.939Z,18.24
2023-04-28T07:31:21.741Z,18.38
2023-04-28T07:34:07.573Z,18.42
2023-04-28T07:36:53.134Z,18.85
2023-04-28T07:39:40.419Z,19.12
2023-04-28T07:42:26.054Z,18.24
2023-04-28T07:45:11.782Z,18.18
2023-04-28T07:47:57.621Z,18.18
2023-04-28T07:50:43.284Z,18.27
2023-04-28T07:53:29.084Z,18.50
2023-04-28T07:56:14.571Z,18.55
2023-04-28T07:59:00.357Z,18.28
2023-04-28T08:01:46.430Z,18.35
2023-04-28T08:04:33.947Z,18.58
2023-04-28T08:07:20.400Z,18.14
2023-04-28T08:10:06.480Z,17.74
2023-04-28T08:12:51.875Z,17.53
2023-04-28T08:15:37.534Z,17.77
2023-04-28T08:18:23.563Z,17.75
2023-04-28T08:21:09.869Z,17.77
2023-04-28T08:23:55.311Z,17.79
2023-04-28T08:26:40.733Z,18.47
2023-04-28T08:29:26.943Z,18.73
2023-04-28T08:32:12.276Z,19.18
2023-04-28T08:34:57.774Z,19.52
2023-04-28T08:37:43.353Z,20.21
2023-04-28T08:40:31.253Z,20.05
2023-04-28T08:43:16.739Z,19.88
2023-04-28T08:46:07.630Z,19.46
2023-04-28T08:48:59.509Z,19.71
2023-04-28T08:51:57.425Z,19.73
2023-04-28T08:54:44.184Z,19.77
2023-04-28T08:57:39.230Z,20.18
2023-04-28T09:00:25.234Z,19.72
2023-04-28T09:03:11.122Z,19.57
2023-04-28T09:05:57.176Z,19.25
2023-04-28T09:08:42.914Z,19.16
2023-04-28T09:11:28.508Z,19.42
2023-04-28T09:14:14.400Z,20.04
2023-04-28T09:17:00.783Z,20.30
2023-04-28T09:19:46.594Z,20.82
2023-04-28T09:22:33.085Z,21.24
2023-04-28T09:25:21.221Z,20.50
2023-04-28T09:28:22.865Z,20.07
2023-04-28T09:31:23.164Z,19.76
2023-04-28T09:34:09.168Z,20.51
2023-04-28T09:36:54.649Z,21.07
2023-04-28T09:39:40.394Z,20.91
2023-04-28T09:42:38.604Z,22.10
2023-04-28T09:45:24.619Z,22.85
2023-04-28T09:48:13.555Z,23.26
2023-04-28T09:51:00.989Z,23.92
2023-04-28T09:53:47.389Z,24.77
2023-04-28T09:56:40.842Z,24.76
2023-04-28T09:59:28.516Z,24.44
2023-04-28T10:02:42.073Z,24.02
2023-04-28T10:05:25.496Z,23.37
2023-04-28T10:08:13.274Z,22.87
2023-04-28T10:10:59.180Z,21.82
2023-04-28T10:13:45.989Z,21.32
2023-04-28T10:16:32.992Z,21.14
2023-04-28T10:19:18.831Z,21.41
2023-04-28T10:22:46.015Z,21.77
2023-04-28T10:25:35.214Z,21.78
2023-04-28T10:28:20.844Z,21.43
2023-04-28T10:34:23.077Z,21.15
2023-04-28T10:37:11.491Z,20.67
2023-04-28T10:40:32.073Z,20.68
2023-04-28T10:43:30.526Z,20.58
2023-04-28T10:46:16.527Z,20.67
2023-04-28T10:49:02.641Z,20.09
2023-04-28T10:51:48.007Z,20.04
2023-04-28T10:54:33.560Z,20.66
2023-04-28T10:57:19.861Z,21.50
2023-04-28T11:00:28.414Z,23.04
2023-04-28T11:03:38.904Z,23.19
2023-04-28T11:06:35.437Z,22.43
2023-04-28T11:09:21.156Z,21.36
2023-04-28T11:12:10.508Z,20.91
2023-04-28T11:14:56.293Z,20.79
2023-04-28T11:17:42.202Z,21.05
2023-04-28T11:20:29.023Z,21.14
2023-04-28T11:23:14.718Z,20.75
2023-04-28T11:26:01.138Z,21.08
2023-04-28T11:28:50.935Z,21.01
2023-04-28T11:31:36.534Z,20.64
2023-04-28T11:34:22.384Z,20.40
2023-04-28T11:37:09.116Z,20.87
2023-04-28T11:39:54.595Z,20.98
2023-04-28T11:42:51.436Z,21.24
2023-04-28T11:45:37.572Z,21.49
2023-04-28T11:48:23.378Z,21.34
2023-04-28T11:51:09.621Z,21.20
2023-04-28T11:53:55.032Z,21.06
2023-04-28T11:56:42.349Z,20.34
2023-04-28T11:59:30.738Z,19.89
2023-04-28T12:02:17.881Z,19.64
2023-04-28T12:05:07.702Z,19.58
2023-04-28T12:07:53.410Z,19.51
2023-04-28T12:10:38.732Z,19.06
2023-04-28T12:13:24.185Z,18.38
2023-04-28T12:16:09.735Z,18.53
2023-04-28T12:18:59.281Z,18.46
2023-04-28T12:21:59.807Z,18.52
2023-04-28T12:24:46.106Z,18.53
2023-04-28T12:27:32.119Z,18.59
2023-04-28T12:30:20.779Z,18.75
2023-04-28T12:33:20.856Z,18.68
2023-04-28T12:36:06.670Z,18.78
2023-04-28T12:38:52.574Z,19.07
2023-04-28T12:41:38.650Z,19.19
2023-04-28T12:44:24.223Z,19.40
2023-04-28T12:47:11.116Z,19.56
2023-04-28T12:49:56.632Z,19.76
2023-04-28T12:52:42.105Z,19.43
2023-04-28T12:55:29.300Z,19.84
2023-04-28T12:58:15.007Z,20.04
2023-04-28T13:01:00.509Z,19.94
2023-04-28T13:03:47.670Z,20.10
2023-04-28T13:06:33.290Z,20.11
2023-04-28T13:09:18.717Z,20.21
2023-04-28T13:12:04.868Z,20.67
2023-04-28T13:14:51.041Z,20.60
2023-04-28T13:17:36.624Z,20.80
2023-04-28T13:20:22.215Z,21.08
2023-04-28T13:23:07.730Z,20.97
2023-04-28T13:25:53.002Z,20.48
2023-04-28T13:28:38.696Z,20.19
2023-04-28T13:31:24.715Z,19.78
2023-04-28T13:34:15.700Z,19.48
2023-04-28T13:37:01.151Z,19.43
2023-04-28T13:39:46.961Z,19.78
2023-04-28T13:42:32.261Z,20.13
2023-04-28T13:45:18.239Z,20.15
2023-04-28T13:48:04.788Z,19.65
2023-04-28T13:50:50.159Z,19.52
2023-04-28T13:53:38.246Z,19.09
2023-04-28T13:56:24.180Z,18.97
2023-04-28T13:59:09.807Z,18.80
2023-04-28T14:01:55.669Z,18.54
2023-04-28T14:04:48.245Z,18.37
2023-04-28T14:07:34.281Z,18.46
2023-04-28T14:10:19.779Z,18.39
2023-04-28T14:13:05.165Z,18.31
2023-04-28T14:15:59.194Z,18.17
2023-04-28T14:18:45.477Z,18.31
2023-04-28T14:21:31.068Z,18.11
2023-04-28T14:24:16.491Z,18.03
2023-04-28T14:27:01.835Z,17.92
2023-04-28T14:29:50.849Z,17.86
2023-04-28T14:32:39.794Z,17.97
2023-04-28T14:35:25.490Z,18.03
2023-04-28T14:38:10.987Z,17.98
2023-04-28T14:40:56.601Z,18.03
2023-04-28T14:43:41.900Z,17.94
2023-04-28T14:46:27.561Z,17.87
2023-04-28T14:49:12.876Z,17.85
2023-04-28T14:52:00.000Z,17.76
2023-04-28T14:54:45.581Z,17.63
2023-04-28T14:57:31.709Z,17.43
2023-04-28T15:00:17.632Z,17.35
2023-04-28T15:03:03.989Z,17.24
2023-04-28T15:05:49.488Z,17.12
2023-04-28T15:08:37.703Z,17.07
2023-04-28T15:11:23.517Z,16.96
2023-04-28T15:14:08.749Z,16.83
2023-04-28T15:16:54.517Z,16.79
2023-04-28T15:19:40.025Z,16.76
2023-04-28T15:22:25.776Z,16.73
2023-04-28T15:25:11.613Z,16.61
2023-04-28T15:27:57.133Z,16.54
2023-04-28T15:30:43.295Z,16.50
2023-04-28T15:33:28.996Z,16.42
2023-04-28T15:36:14.603Z,16.23
2023-04-28T15:39:00.153Z,16.10
2023-04-28T15:41:45.643Z,16.04
2023-04-28T15:44:31.098Z,16.01
2023-04-28T15:47:16.589Z,15.74
2023-04-28T15:50:02.275Z,15.59
2023-04-28T15:52:49.836Z,15.47
2023-04-28T15:55:36.048Z,15.39
2023-04-28T15:58:21.865Z,15.45
2023-04-28T16:01:07.470Z,15.55
2023-04-28T16:03:53.259Z,15.68
2023-04-28T16:06:39.130Z,15.63
2023-04-28T16:09:24.397Z,15.78
2023-04-28T16:12:10.038Z,15.89
2023-04-28T16:14:56.124Z,15.96
2023-04-28T16:17:41.751Z,16.08
2023-04-28T16:20:27.939Z,16.06
2023-04-28T16:23:14.225Z,16.02
2023-04-28T16:26:00.241Z,16.05
2023-04-28T16:28:45.947Z,15.87
2023-04-28T16:31:32.495Z,15.82
2023-04-28T16:34:19.354Z,15.73
2023-04-28T16:37:06.474Z,15.65
2023-04-28T16:39:52.487Z,15.61
2023-04-28T16:42:38.309Z,15.56
2023-04-28T16:45:23.887Z,15.56
2023-04-28T16:48:09.466Z,15.57
2023-04-28T16:50:54.948Z,15.55
2023-04-28T16:53:40.537Z,15.48
2023-04-28T16:56:26.254Z,15.42
2023-04-28T16:59:11.616Z,15.39
2023-04-28T17:01:58.025Z,15.32
2023-04-28T17:04:43.449Z,15.35
2023-04-28T17:07:29.038Z,15.33
2023-04-28T17:10:14.602Z,15.23
2023-04-28T17:13:00.413Z,15.21
2023-04-28T17:15:46.013Z,15.12
2023-04-28T17:18:31.586Z,15.13
2023-04-28T17:21:17.708Z,15.01
2023-04-28T17:24:03.238Z,14.91
2023-04-28T17:26:49.837Z,14.71
2023-04-28T17:29:35.316Z,14.53
2023-04-28T17:32:20.685Z,14.48
2023-04-28T17:35:06.812Z,14.53
2023-04-28T17:37:52.187Z,14.54
2023-04-28T17:40:37.837Z,14.55
2023-04-28T17:43:25.394Z,14.60
2023-04-28T17:46:12.233Z,14.64
2023-04-28T17:48:59.552Z,14.64
2023-04-28T17:51:45.098Z,14.69
2023-04-28T17:54:32.050Z,14.73
2023-04-28T17:57:18.229Z,14.68
2023-04-28T18:00:03.723Z,14.65
2023-04-28T18:02:49.112Z,14.66
2023-04-28T18:05:36.120Z,14.63
2023-04-28T18:08:21.953Z,14.60
2023-04-28T18:11:09.827Z,14.51
2023-04-28T18:13:55.319Z,14.56
2023-04-28T18:16:41.235Z,14.45
2023-04-28T18:19:28.500Z,14.03
2023-04-28T18:22:13.787Z,13.34
2023-04-28T18:24:59.714Z,12.92
2023-04-28T18:27:45.706Z,12.62
2023-04-28T18:30:40.053Z,12.41
2023-04-28T18:33:28.381Z,12.29
2023-04-28T18:36:13.946Z,12.31
2023-04-28T18:38:59.585Z,12.22
2023-04-28T18:41:45.077Z,12.11
2023-04-28T18:44:31.137Z,12.21
2023-04-28T18:47:17.034Z,12.21
2023-04-28T18:50:03.599Z,12.25
2023-04-28T18:52:49.011Z,12.23
2023-04-28T18:55:34.683Z,12.23
2023-04-28T18:58:20.156Z,12.23
2023-04-28T19:01:05.905Z,-68.58
2023-04-28T19:03:52.443Z,-141.87
2023-04-28T19:06:38.121Z,-141.87
2023-04-28T19:09:23.521Z,-141.87
2023-04-28T19:12:09.060Z,-141.87
2023-04-28T19:14:55.446Z,-141.87
2023-04-28T19:17:40.844Z,-141.87
2023-04-28T19:20:26.611Z,-141.87
2023-04-28T19:23:12.252Z,-141.87
2023-04-28T19:25:58.898Z,-141.87
2023-04-28T19:28:44.717Z,-141.87
2023-04-28T19:31:30.147Z,-141.87
2023-04-28T19:34:15.788Z,-141.87
2023-04-28T19:37:01.500Z,-141.87
2023-04-28T19:39:47.940Z,-141.87
2023-04-28T19:42:35.039Z,-141.87
2023-04-28T19:45:20.758Z,-141.87
2023-04-28T19:48:06.863Z,-141.87
2023-04-28T19:50:52.321Z,-141.87
2023-04-28T19:53:40.515Z,-141.87
2023-04-28T19:56:26.553Z,-141.87
2023-04-28T19:59:11.965Z,-141.87
2023-04-28T20:01:57.603Z,-141.87
2023-04-28T20:04:43.440Z,-141.87
2023-04-28T20:07:29.151Z,-141.87
2023-04-28T20:10:15.618Z,-141.87
2023-04-28T20:13:02.672Z,-141.87
2023-04-28T20:15:48.562Z,-141.87
2023-04-28T20:18:35.495Z,-141.87
2023-04-28T20:21:21.211Z,-141.87
2023-04-28T20:24:07.191Z,-141.87
2023-04-28T20:26:54.393Z,-141.87
2023-04-28T20:29:40.299Z,-141.87
2023-04-28T20:32:25.853Z,-141.87
2023-04-28T20:35:11.897Z,-141.87
2023-04-28T20:37:57.893Z,-141.87
2023-04-28T20:40:44.848Z,-141.87
2023-04-28T20:43:30.308Z,-141.87
2023-04-28T20:46:16.475Z,-141.87
2023-04-28T20:49:02.181Z,-141.87
2023-04-28T20:51:47.812Z,-141.87
2023-04-28T20:54:35.791Z,-141.87
2023-04-28T20:57:21.470Z,-141.87
2023-04-28T21:00:08.646Z,-141.87
2023-04-28T21:02:54.398Z,-141.87
2023-04-28T21:05:40.033Z,-141.87
2023-04-28T21:08:26.226Z,-141.87
2023-04-28T21:11:13.058Z,-141.87
2023-04-28T21:13:58.524Z,-141.87
2023-04-28T21:16:44.265Z,-141.87
2023-04-28T21:19:30.594Z,-141.87
2023-04-28T21:22:16.542Z,-141.87
2023-04-28T21:25:01.998Z,-141.87
2023-04-28T21:27:47.566Z,-141.87
2023-04-28T21:30:33.001Z,-141.87
2023-04-28T21:33:18.389Z,-141.87
2023-04-28T21:36:08.986Z,-141.87
2023-04-28T21:38:54.784Z,-141.87
2023-04-28T21:41:40.312Z,-141.87
2023-04-28T21:44:25.946Z,-141.87
2023-04-28T21:47:11.563Z,-141.87
2023-04-28T21:49:57.466Z,-141.87
2023-04-28T21:52:43.062Z,-141.87
2023-04-28T21:55:28.538Z,-141.87
2023-04-28T21:58:13.962Z,-141.87
2023-04-28T22:00:59.812Z,-141.87
2023-04-28T22:03:47.641Z,-141.87
2023-04-28T22:06:33.421Z,-141.87
2023-04-28T22:09:18.794Z,-141.87
2023-04-28T22:12:04.585Z,-141.87
2023-04-28T22:14:50.184Z,-141.87
2023-04-28T22:17:35.794Z,-141.87
2023-04-28T22:20:21.396Z,-141.87
2023-04-28T22:23:06.677Z,-141.87
2023-04-28T22:25:52.272Z,-141.87
2023-04-28T22:28:37.734Z,-141.87
2023-04-28T22:31:23.159Z,-141.87
2023-04-28T22:34:09.957Z,-141.87
2023-04-28T22:36:55.309Z,-141.87
2023-04-28T22:39:40.829Z,-141.87
2023-04-28T22:42:26.144Z,-141.87
2023-04-28T22:45:12.049Z,-141.87
2023-04-28T22:47:57.725Z,-141.87
2023-04-28T22:50:45.972Z,-141.87
2023-04-28T22:53:31.527Z,-141.87
2023-04-28T22:56:17.119Z,-141.87
2023-04-28T22:59:03.009Z,-141.87
2023-04-28T23:01:48.895Z,-141.87
2023-04-28T23:04:34.801Z,-141.87
2023-04-28T23:07:20.580Z,-141.87
2023-04-28T23:10:07.555Z,-141.87
2023-04-28T23:12:53.120Z,-141.87
2023-04-28T23:15:38.370Z,-141.87
2023-04-28T23:18:23.881Z,-141.87
2023-04-28T23:21:09.804Z,-141.87
2023-04-28T23:23:55.292Z,-141.87
2023-04-28T23:26:41.111Z,-141.87
2023-04-28T23:29:26.606Z,-141.87
2023-04-28T23:32:12.715Z,-141.87
2023-04-28T23:34:58.845Z,-141.87
2023-04-28T23:37:44.497Z,-141.87
2023-04-28T23:40:30.149Z,-141.87
2023-04-28T23:43:15.508Z,-141.87
2023-04-28T23:46:01.229Z,-141.87
2023-04-28T23:48:46.687Z,-141.87
2023-04-28T23:51:32.318Z,-141.87
2023-04-28T23:54:17.772Z,-141.87
2023-04-28T23:57:03.400Z,-141.87
2023-04-28T23:59:48.983Z,-141.87
